Time;durP1;ratioP1;P1;durP2;ratioP2;P2;SDS_P1;SDS_P2;PMS_P1;PMS_P2;Temp;Humidity;BMP_temperature;BMP_pressure;BME280_temperature;BME280_humidity;BME280_pressure;Samples;Min_cycle;Max_cycle;Signal;HPM_P1;HPM_P2
2022/10/18 00:03:30;;;;;;;14.45;8.88;;;;;;;14.92;75.26;100210.50;8499348;27;20480;-83
2022/10/18 00:07:31;;;;;;;15.93;9.13;;;;;;;14.94;75.14;100208.28;8503378;27;20491;-82
2022/10/18 00:11:33;;;;;;;14.52;9.20;;;;;;;14.95;75.34;100218.03;8499679;27;20043;-83
2022/10/18 00:15:33;;;;;;;16.77;10.02;;;;;;;14.87;75.66;100218.78;8498523;27;20380;-83
2022/10/18 00:19:35;;;;;;;19.27;11.10;;;;;;;14.74;76.32;100221.28;8446502;27;20039;-83
2022/10/18 00:23:35;;;;;;;18.83;9.45;;;;;;;14.64;76.88;100218.81;8478722;27;20108;-83
2022/10/18 00:27:36;;;;;;;20.40;11.05;;;;;;;14.54;77.16;100220.97;8474659;27;20039;-84
2022/10/18 00:31:37;;;;;;;18.42;9.82;;;;;;;14.44;77.44;100211.09;8465870;28;20054;-83
2022/10/18 00:35:38;;;;;;;20.92;10.95;;;;;;;14.39;77.88;100213.94;8466885;27;20060;-83
2022/10/18 00:39:39;;;;;;;23.63;10.80;;;;;;;14.26;78.45;100203.91;8475180;27;20085;-85
2022/10/18 00:43:56;;;;;;;19.15;10.80;;;;;;;14.16;78.86;100215.00;8484418;27;20044;-84
2022/10/18 00:48:00;;;;;;;32.80;13.07;;;;;;;14.04;79.02;100206.56;8480978;27;20047;-85
2022/10/18 00:52:07;;;;;;;23.05;12.45;;;;;;;13.95;79.35;100215.44;8473884;27;20136;-84
2022/10/18 00:56:08;;;;;;;18.02;11.25;;;;;;;13.88;79.46;100209.59;8463289;27;20527;-85
2022/10/18 01:00:09;;;;;;;22.20;12.20;;;;;;;13.81;80.07;100203.75;8472240;27;20043;-85
2022/10/18 01:04:11;;;;;;;20.08;11.57;;;;;;;13.73;80.18;100207.19;8478509;27;20051;-85
2022/10/18 01:08:44;;;;;;;17.95;10.98;;;;;;;13.69;80.54;100211.63;8446033;27;20055;-85
2022/10/18 01:12:54;;;;;;;17.77;11.80;;;;;;;13.61;80.59;100197.94;8329792;28;20053;-83
2022/10/18 01:17:03;;;;;;;24.05;11.73;;;;;;;13.51;80.91;100188.09;8345136;28;20050;-83
2022/10/18 01:21:13;;;;;;;19.90;11.55;;;;;;;13.43;81.18;100192.31;8337377;28;20045;-84
2022/10/18 01:25:25;;;;;;;18.58;11.23;;;;;;;13.37;81.45;100187.31;8346807;28;20053;-83
2022/10/18 01:29:44;;;;;;;16.83;11.02;;;;;;;13.33;81.53;100187.06;8335049;28;20052;-83
2022/10/18 01:33:52;;;;;;;22.20;11.73;;;;;;;13.29;81.73;100182.56;8349374;28;20068;-83
2022/10/18 01:37:55;;;;;;;24.42;11.50;;;;;;;13.25;81.72;100176.13;8327107;28;20102;-84
2022/10/18 01:41:57;;;;;;;19.15;11.55;;;;;;;13.19;81.92;100177.31;8331674;28;20494;-85
2022/10/18 01:45:58;;;;;;;21.65;11.32;;;;;;;13.16;82.24;100181.47;8325795;28;20081;-83
2022/10/18 01:50:03;;;;;;;21.98;11.40;;;;;;;13.13;82.19;100181.22;8435631;27;20048;-83
2022/10/18 01:54:04;;;;;;;19.08;10.10;;;;;;;13.08;82.28;100182.09;8465746;27;20062;-83
2022/10/18 01:58:19;;;;;;;19.10;10.88;;;;;;;12.99;82.40;100192.84;8485750;27;20052;-83
2022/10/18 02:02:32;;;;;;;21.17;10.85;;;;;;;12.94;82.66;100184.81;8467798;27;20185;-83
2022/10/18 02:06:36;;;;;;;22.88;11.73;;;;;;;12.89;82.94;100181.38;8462706;27;20046;-83
2022/10/18 02:10:46;;;;;;;23.40;10.63;;;;;;;12.86;82.85;100188.19;8440728;27;20055;-84
2022/10/18 02:14:48;;;;;;;22.35;10.98;;;;;;;12.84;82.81;100179.56;8468234;27;20047;-84
2022/10/18 02:18:54;;;;;;;18.98;11.13;;;;;;;12.83;82.62;100172.53;8476834;27;20055;-84
2022/10/18 02:22:57;;;;;;;18.70;11.13;;;;;;;12.81;82.56;100180.13;8469286;27;20051;-84
2022/10/18 02:26:58;;;;;;;18.73;11.00;;;;;;;12.80;82.48;100183.94;8461985;28;20481;-84
2022/10/18 02:31:08;;;;;;;18.45;11.18;;;;;;;12.73;82.67;100167.28;8468488;27;20507;-83
2022/10/18 02:35:21;;;;;;;21.80;11.48;;;;;;;12.68;82.80;100180.91;8467675;27;20040;-84
2022/10/18 02:39:26;;;;;;;25.52;12.00;;;;;;;12.68;82.79;100180.91;8470829;27;20043;-84
2022/10/18 02:43:27;;;;;;;21.30;12.55;;;;;;;12.73;82.72;100178.13;8471356;27;20411;-83
2022/10/18 02:47:28;;;;;;;23.23;12.13;;;;;;;12.75;82.83;100186.75;8458413;27;20043;-84
2022/10/18 02:51:28;;;;;;;20.08;12.68;;;;;;;12.79;82.87;100187.78;8463311;27;20118;-83
2022/10/18 02:55:29;;;;;;;30.00;13.80;;;;;;;12.80;82.88;100189.38;8464346;27;20050;-83
2022/10/18 02:59:30;;;;;;;21.88;12.27;;;;;;;12.79;82.88;100187.78;8444678;28;20139;-83
2022/10/18 03:03:31;;;;;;;25.38;12.48;;;;;;;12.78;82.89;100186.16;8473447;27;20055;-83
2022/10/18 03:07:32;;;;;;;20.13;11.63;;;;;;;12.75;83.01;100192.16;8480059;27;20128;-84
2022/10/18 03:11:33;;;;;;;23.90;11.93;;;;;;;12.73;83.08;100183.53;8479865;27;20047;-84
2022/10/18 03:15:34;;;;;;;21.02;11.88;;;;;;;12.70;83.23;100189.53;8465446;27;20078;-83
2022/10/18 03:19:35;;;;;;;22.13;11.32;;;;;;;12.66;83.31;100199.38;8420559;28;20044;-84
2022/10/18 03:23:35;;;;;;;28.52;11.63;;;;;;;12.61;83.22;100196.72;8446851;28;20615;-83
2022/10/18 03:27:36;;;;;;;24.98;12.23;;;;;;;12.57;83.58;100206.56;8441547;28;20395;-82
2022/10/18 03:31:37;;;;;;;19.73;10.85;;;;;;;12.52;83.64;100201.22;8430440;28;20050;-82
2022/10/18 03:35:39;;;;;;;17.58;10.30;;;;;;;12.49;83.59;100209.94;8428946;28;20044;-82
2022/10/18 03:39:39;;;;;;;30.17;11.38;;;;;;;12.46;83.62;100205.09;8436296;28;20036;-82
2022/10/18 03:43:40;;;;;;;27.17;10.95;;;;;;;12.43;83.61;100211.09;8421289;28;20477;-82
2022/10/18 03:47:41;;;;;;;18.08;10.85;;;;;;;12.39;83.68;100210.06;8422546;28;20055;-82
2022/10/18 03:51:42;;;;;;;17.00;10.70;;;;;;;12.36;83.89;100216.09;8448996;28;20139;-82
2022/10/18 03:55:43;;;;;;;17.13;9.82;;;;;;;12.33;83.77;100222.09;8432744;28;20189;-82
2022/10/18 03:59:44;;;;;;;23.80;10.52;;;;;;;12.28;83.80;100223.78;8446784;28;20059;-82
2022/10/18 04:03:44;;;;;;;20.10;10.90;;;;;;;12.28;83.95;100221.06;8439490;28;20142;-82
2022/10/18 04:07:45;;;;;;;18.25;9.40;;;;;;;12.22;84.00;100216.81;8436861;28;20134;-82
2022/10/18 04:11:49;;;;;;;26.92;10.25;;;;;;;12.17;84.20;100222.31;8409762;28;20104;-82
2022/10/18 04:15:50;;;;;;;20.60;9.48;;;;;;;12.12;84.27;100216.97;8427449;28;20089;-82
2022/10/18 04:19:51;;;;;;;24.38;10.60;;;;;;;12.09;84.52;100214.84;8479749;27;20091;-82
2022/10/18 04:23:52;;;;;;;16.55;11.10;;;;;;;12.03;84.68;100218.72;8513230;27;20068;-82
2022/10/18 04:27:53;;;;;;;17.42;10.27;;;;;;;12.02;84.64;100217.09;8491531;27;20119;-82
2022/10/18 04:31:54;;;;;;;20.73;10.05;;;;;;;11.97;84.82;100216.34;8503858;27;20047;-90
2022/10/18 04:35:54;;;;;;;27.98;15.65;;;;;;;11.95;85.03;100222.06;8497601;27;20111;-81
2022/10/18 04:39:56;;;;;;;25.25;15.75;;;;;;;11.91;85.16;100210.19;8497472;27;20608;-81
2022/10/18 04:43:56;;;;;;;24.92;14.18;;;;;;;11.88;85.16;100210.78;8505717;27;20067;-81
2022/10/18 04:47:57;;;;;;;25.05;12.23;;;;;;;11.84;85.36;100215.19;8502307;27;20047;-81
2022/10/18 04:51:58;;;;;;;19.48;11.73;;;;;;;11.77;85.67;100214.72;8502924;27;20495;-82
2022/10/18 04:55:59;;;;;;;21.13;11.10;;;;;;;11.69;85.97;100213.41;8499476;27;20051;-82
2022/10/18 05:00:00;;;;;;;20.77;9.77;;;;;;;11.65;86.33;100217.81;8499328;27;20096;-81
2022/10/18 05:04:02;;;;;;;16.05;11.20;;;;;;;11.61;86.48;100205.13;8508718;27;20851;-82
2022/10/18 05:08:03;;;;;;;22.40;11.35;;;;;;;11.56;86.51;100207.91;8503608;27;20058;-82
2022/10/18 05:12:04;;;;;;;22.10;11.38;;;;;;;11.53;86.79;100203.06;8506463;27;20043;-82
2022/10/18 05:16:05;;;;;;;25.80;14.85;;;;;;;11.49;86.95;100199.31;8516312;27;20448;-82
2022/10/18 05:20:06;;;;;;;30.95;19.23;;;;;;;11.44;87.03;100201.00;8515616;27;20046;-82
2022/10/18 05:24:10;;;;;;;21.20;12.65;;;;;;;11.42;87.25;100205.88;8502735;27;20061;-82
2022/10/18 05:28:12;;;;;;;21.48;12.45;;;;;;;11.40;87.53;100205.38;8508683;27;20050;-82
2022/10/18 05:32:12;;;;;;;21.17;12.23;;;;;;;11.37;87.66;100199.72;8524368;27;20142;-82
2022/10/18 05:36:13;;;;;;;21.65;13.35;;;;;;;11.35;87.66;100191.91;8520537;27;20692;-82
2022/10/18 05:40:14;;;;;;;27.15;13.48;;;;;;;11.35;87.86;100200.03;8527662;27;20083;-82
2022/10/18 05:44:15;;;;;;;23.45;13.20;;;;;;;11.37;88.07;100199.72;8529191;27;20035;-82
2022/10/18 05:48:16;;;;;;;33.00;14.75;;;;;;;11.40;87.99;100205.38;8452415;28;20055;-82
2022/10/18 05:52:18;;;;;;;25.38;14.35;;;;;;;11.43;87.96;100199.38;8445022;28;20059;-82
2022/10/18 05:56:19;;;;;;;24.83;13.30;;;;;;;11.46;88.20;100213.44;8440708;28;20088;-82
2022/10/18 06:00:19;;;;;;;23.58;14.10;;;;;;;11.48;88.29;100205.81;8431727;28;20446;-82
2022/10/18 06:04:20;;;;;;;22.17;14.02;;;;;;;11.54;88.29;100204.66;8429903;28;20048;-82
2022/10/18 06:08:21;;;;;;;30.52;15.38;;;;;;;11.57;88.40;100210.34;8408711;28;20138;-82
2022/10/18 06:12:22;;;;;;;23.80;13.27;;;;;;;11.65;88.35;100206.16;8432320;28;20077;-82
2022/10/18 06:16:24;;;;;;;34.65;15.10;;;;;;;11.72;88.61;100201.22;8428596;28;20596;-82
2022/10/18 06:20:25;;;;;;;24.08;15.07;;;;;;;11.81;88.78;100215.75;8504459;27;20054;-82
2022/10/18 06:24:26;;;;;;;24.05;14.98;;;;;;;11.91;88.56;100218.31;8506599;27;20129;-82
2022/10/18 06:28:28;;;;;;;27.80;14.20;;;;;;;12.01;88.43;100215.47;8521959;27;20052;-82
2022/10/18 06:32:29;;;;;;;27.63;16.52;;;;;;;12.10;88.35;100212.94;8502655;27;20043;-82
2022/10/18 06:36:30;;;;;;;29.92;15.60;;;;;;;12.21;88.02;100209.78;8515481;27;20395;-82
2022/10/18 06:40:36;;;;;;;27.70;14.90;;;;;;;12.30;88.11;100212.66;8489406;27;20051;-82
2022/10/18 06:44:37;;;;;;;22.33;14.55;;;;;;;12.39;87.89;100215.50;8524669;27;20045;-82
2022/10/18 06:48:38;;;;;;;29.77;15.93;;;;;;;12.50;88.15;100200.69;8507507;27;20467;-82
2022/10/18 06:52:40;;;;;;;23.67;15.18;;;;;;;12.59;88.28;100209.75;8518822;27;20046;-82
2022/10/18 06:56:41;;;;;;;26.58;15.20;;;;;;;12.65;88.62;100209.41;8502509;27;20380;-82
2022/10/18 07:00:44;;;;;;;25.52;15.70;;;;;;;12.70;88.73;100216.63;8495948;27;20050;-82
2022/10/18 07:04:44;;;;;;;31.50;16.60;;;;;;;12.78;88.83;100218.69;8495545;27;20043;-82
2022/10/18 07:08:47;;;;;;;25.40;16.67;;;;;;;12.90;88.92;100221.72;8497401;27;20123;-82
2022/10/18 07:12:47;;;;;;;27.85;15.60;;;;;;;13.02;88.80;100224.78;8495696;27;20130;-82
2022/10/18 07:16:49;;;;;;;29.75;16.10;;;;;;;13.16;88.75;100224.06;8450674;27;20134;-82
2022/10/18 07:20:49;;;;;;;27.23;14.20;;;;;;;13.29;88.76;100228.69;8501187;27;20054;-82
2022/10/18 07:24:50;;;;;;;28.67;14.68;;;;;;;13.46;88.59;100228.91;8508091;27;20039;-82
2022/10/18 07:28:57;;;;;;;23.27;13.75;;;;;;;13.59;88.38;100233.53;8464823;27;20047;-81
2022/10/18 07:32:58;;;;;;;23.10;13.43;;;;;;;13.70;87.99;100234.94;8468724;27;20480;-82
2022/10/18 07:37:01;;;;;;;22.73;12.85;;;;;;;13.81;87.71;100241.78;8494085;27;20077;-83
2022/10/18 07:41:05;;;;;;;27.95;13.80;;;;;;;13.92;87.39;100248.63;8494877;27;20035;-82
2022/10/18 07:45:08;;;;;;;23.52;14.13;;;;;;;13.97;87.32;100244.97;8494932;27;20051;-82
2022/10/18 07:49:08;;;;;;;27.25;14.43;;;;;;;14.01;87.43;100245.19;8449055;27;20059;-82
2022/10/18 07:53:09;;;;;;;20.30;13.65;;;;;;;14.09;87.07;100236.31;8462618;27;20277;-82
2022/10/18 07:57:10;;;;;;;25.98;14.80;;;;;;;14.26;86.33;100231.06;8494418;27;20395;-82
2022/10/18 08:01:12;;;;;;;23.20;13.48;;;;;;;14.45;85.49;100229.03;8494711;27;20039;-82
2022/10/18 08:05:14;;;;;;;26.35;14.77;;;;;;;14.60;85.03;100225.94;8486838;27;20436;-82
2022/10/18 08:09:14;;;;;;;28.83;15.27;;;;;;;14.75;84.66;100228.28;8486904;27;20043;-82
2022/10/18 08:13:16;;;;;;;20.08;13.57;;;;;;;14.91;84.60;100225.22;8501179;27;20059;-82
2022/10/18 08:17:16;;;;;;;23.85;15.10;;;;;;;15.06;84.71;100222.94;8458908;27;20048;-82
2022/10/18 08:21:20;;;;;;;27.70;15.30;;;;;;;15.20;84.07;100218.19;8500335;27;20464;-82
2022/10/18 08:25:20;;;;;;;29.05;15.63;;;;;;;15.31;83.90;100224.16;8490968;27;20461;-82
2022/10/18 08:29:22;;;;;;;24.98;15.88;;;;;;;15.48;83.41;100207.91;8493821;27;20043;-84
2022/10/18 08:33:22;;;;;;;27.27;14.98;;;;;;;15.62;83.12;100197.75;8494093;28;20675;-82
2022/10/18 08:37:24;;;;;;;23.55;14.68;;;;;;;15.82;82.62;100195.53;8502404;27;20090;-81
2022/10/18 08:41:37;;;;;;;28.30;15.27;;;;;;;16.00;81.81;100180.84;8466678;27;20051;-82
2022/10/18 08:45:40;;;;;;;39.35;16.40;;;;;;;16.19;81.19;100177.81;8529577;27;20057;-82
2022/10/18 08:50:25;;;;;;;31.10;16.83;;;;;;;16.34;80.62;100164.50;8514940;27;20514;-83
2022/10/18 08:54:34;;;;;;;31.90;15.38;;;;;;;16.56;80.69;100170.91;8385738;28;20183;-85
2022/10/18 08:58:34;;;;;;;24.05;15.93;;;;;;;16.74;80.08;100178.00;8359418;28;20052;-82
2022/10/18 09:02:41;;;;;;;31.92;15.50;;;;;;;16.93;79.51;100175.69;8336814;28;20048;-80
2022/10/18 09:07:12;;;;;;;34.58;16.08;;;;;;;17.06;78.77;100163.78;8368032;28;20047;-81
2022/10/18 09:11:16;;;;;;;25.37;16.20;;;;;;;17.29;79.06;100151.50;8379522;28;20055;-80
2022/10/18 09:15:35;;;;;;;29.10;16.20;;;;;;;17.52;78.56;100159.41;8367276;28;20171;-81
2022/10/18 09:20:00;;;;;;;32.10;17.42;;;;;;;17.69;78.59;100159.38;8350193;28;20048;-82
2022/10/18 09:24:11;;;;;;;26.58;16.50;;;;;;;17.86;78.66;100164.75;8380006;28;20048;-83
2022/10/18 09:28:49;;;;;;;35.25;17.85;;;;;;;18.03;78.56;100158.34;8412385;27;20050;-82
2022/10/18 09:33:07;;;;;;;37.08;18.23;;;;;;;18.06;78.07;100141.28;8515615;27;20051;-81
2022/10/18 09:37:13;;;;;;;35.30;18.30;;;;;;;18.01;78.43;100136.81;8509035;27;20133;-82
2022/10/18 09:41:22;;;;;;;35.30;20.08;;;;;;;17.98;78.80;100129.25;8516684;27;20046;-83
2022/10/18 09:45:26;;;;;;;32.50;18.63;;;;;;;17.97;78.82;100122.22;8513199;27;20130;-81
2022/10/18 09:49:31;;;;;;;30.52;18.85;;;;;;;18.03;78.76;100115.41;8524748;27;20043;-81
2022/10/18 09:53:35;;;;;;;29.55;18.02;;;;;;;18.15;78.62;100107.25;8502683;27;20055;-81
2022/10/18 09:57:41;;;;;;;35.72;19.23;;;;;;;18.22;78.26;100111.41;8479793;27;20131;-81
2022/10/18 10:01:42;;;;;;;39.58;19.00;;;;;;;18.28;77.43;100093.66;8502957;27;20051;-81
2022/10/18 10:05:44;;;;;;;29.40;17.48;;;;;;;18.50;77.19;100096.03;8517704;27;20043;-81
2022/10/18 10:09:47;;;;;;;26.50;16.38;;;;;;;18.66;76.66;100086.06;8449578;27;20484;-81
2022/10/18 10:13:48;;;;;;;28.25;15.65;;;;;;;18.67;76.61;100084.91;8518865;27;20515;-82
2022/10/18 10:18:03;;;;;;;30.25;15.90;;;;;;;18.64;76.77;100074.66;8511740;27;20051;-82
2022/10/18 10:22:08;;;;;;;27.48;15.45;;;;;;;18.59;76.83;100076.81;8507665;27;20480;-81
2022/10/18 10:26:24;;;;;;;22.95;15.32;;;;;;;18.52;77.10;100069.13;8486479;27;20039;-82
2022/10/18 10:30:36;;;;;;;23.65;14.82;;;;;;;18.51;77.41;100070.25;8486714;27;20070;-81
2022/10/18 10:34:36;;;;;;;28.40;16.25;;;;;;;18.56;77.28;100067.31;8457497;28;20476;-81
2022/10/18 10:38:37;;;;;;;27.70;17.10;;;;;;;18.57;77.38;100060.72;8441121;28;20488;-81
2022/10/18 10:43:14;;;;;;;32.38;17.08;;;;;;;18.52;77.35;100055.44;8459892;28;20051;-82
2022/10/18 10:47:27;;;;;;;31.00;16.88;;;;;;;18.49;77.73;100040.50;8307959;28;20061;-82
2022/10/18 10:51:36;;;;;;;28.23;17.20;;;;;;;18.44;77.34;100046.22;8357620;28;20429;-83
2022/10/18 10:55:41;;;;;;;27.30;16.77;;;;;;;18.36;77.48;100046.28;8358773;28;20693;-82
2022/10/18 10:59:46;;;;;;;29.05;16.83;;;;;;;18.30;78.16;100036.69;8342969;28;20552;-82
2022/10/18 11:03:49;;;;;;;27.73;17.40;;;;;;;18.27;78.64;100045.56;8366044;28;20055;-82
2022/10/18 11:07:52;;;;;;;29.92;16.58;;;;;;;18.22;78.77;100041.13;8367527;28;20083;-82
2022/10/18 11:12:09;;;;;;;30.95;16.58;;;;;;;18.13;78.98;100030.28;8367767;28;20499;-82
2022/10/18 11:16:16;;;;;;;28.00;15.45;;;;;;;18.14;78.92;100029.13;8374849;28;20071;-80
2022/10/18 11:20:30;;;;;;;29.08;16.63;;;;;;;18.25;78.32;100029.50;8366913;28;20036;-84
2022/10/18 11:24:33;;;;;;;28.65;15.85;;;;;;;18.25;78.48;100023.22;8400606;28;20130;-82
2022/10/18 11:28:49;;;;;;;32.00;17.70;;;;;;;18.25;78.69;100028.69;8386039;28;20389;-82
2022/10/18 11:32:56;;;;;;;31.02;16.17;;;;;;;18.26;78.75;100031.09;8427598;28;20057;-84
2022/10/18 11:36:57;;;;;;;29.33;16.08;;;;;;;18.36;78.48;100013.47;8436479;28;20051;-82
2022/10/18 11:41:16;;;;;;;24.00;14.48;;;;;;;18.58;77.60;100002.16;8447296;28;20134;-82
2022/10/18 11:45:27;;;;;;;34.20;15.18;;;;;;;18.88;76.69;99981.63;8440225;28;20040;-83
2022/10/18 11:49:50;;;;;;;25.38;13.77;;;;;;;18.88;76.20;99987.09;8437215;28;20477;-83
2022/10/18 11:54:13;;;;;;;30.48;14.30;;;;;;;18.77;76.45;99975.00;8426785;28;20086;-83
2022/10/18 11:58:16;;;;;;;23.10;13.50;;;;;;;18.66;76.73;99951.22;8427080;28;20391;-82
2022/10/18 12:02:45;;;;;;;25.83;14.05;;;;;;;18.67;76.82;99937.16;8426759;28;20097;-82
2022/10/18 12:06:50;;;;;;;30.60;13.90;;;;;;;18.70;76.73;99941.97;8426504;28;20100;-83
2022/10/18 12:10:55;;;;;;;25.27;13.02;;;;;;;18.76;77.13;99935.13;8426186;28;20461;-87
2022/10/18 12:15:19;;;;;;;22.50;13.05;;;;;;;18.66;77.04;99930.13;8391046;28;20061;-83
2022/10/18 12:19:22;;;;;;;25.60;12.82;;;;;;;18.53;77.26;99923.00;8442632;28;20052;-84
2022/10/18 12:23:47;;;;;;;22.60;12.30;;;;;;;18.44;77.67;99917.66;8443139;28;20040;-81
2022/10/18 12:27:57;;;;;;;24.50;13.30;;;;;;;18.34;77.94;99911.84;8406642;28;20047;-82
2022/10/18 12:32:06;;;;;;;18.85;13.52;;;;;;;18.33;78.09;99910.25;8447205;28;20048;-82
2022/10/18 12:36:19;;;;;;;26.38;14.18;;;;;;;18.33;78.02;99899.31;8421775;28;20048;-82
2022/10/18 12:40:24;;;;;;;18.85;12.25;;;;;;;18.34;78.24;99896.25;8415562;28;20063;-82
2022/10/18 12:44:28;;;;;;;25.95;12.85;;;;;;;18.34;78.04;99900.91;8470863;27;20051;-83
2022/10/18 12:48:41;;;;;;;25.98;12.75;;;;;;;18.36;77.95;99888.47;8480714;27;20126;-82
2022/10/18 12:52:42;;;;;;;26.75;12.85;;;;;;;18.39;77.89;99887.00;8487297;27;20035;-83
2022/10/18 12:56:45;;;;;;;26.60;13.27;;;;;;;18.40;77.74;99883.13;8484363;27;20069;-82
2022/10/18 13:00:50;;;;;;;26.10;13.10;;;;;;;18.42;77.63;99873.44;8470316;27;20517;-83
2022/10/18 13:04:51;;;;;;;21.15;13.13;;;;;;;18.53;78.00;99865.56;8476529;27;20082;-84
2022/10/18 13:09:20;;;;;;;24.13;13.38;;;;;;;18.69;76.82;99874.72;8428120;28;20399;-82
2022/10/18 13:13:41;;;;;;;24.80;12.70;;;;;;;18.81;76.38;99866.50;8391308;28;20056;-84
2022/10/18 13:17:52;;;;;;;21.80;11.98;;;;;;;18.83;76.51;99864.19;8363817;28;20528;-83
2022/10/18 13:22:30;;;;;;;24.10;11.90;;;;;;;18.97;76.17;99870.09;8413633;28;20056;-82
2022/10/18 13:26:49;;;;;;;27.30;13.40;;;;;;;18.98;76.54;99871.69;8421481;28;20484;-83
2022/10/18 13:30:57;;;;;;;22.27;12.52;;;;;;;18.97;77.33;99870.09;8409255;28;20076;-82
2022/10/18 13:34:58;;;;;;;20.57;13.53;;;;;;;18.97;77.61;99875.59;8416053;28;20048;-83
2022/10/18 13:39:04;;;;;;;23.85;13.63;;;;;;;18.89;78.27;99873.75;8445706;28;20126;-83
2022/10/18 13:43:43;;;;;;;25.23;13.18;;;;;;;18.78;78.93;99883.59;8485789;27;20039;-83
2022/10/18 13:47:44;;;;;;;25.35;13.95;;;;;;;18.65;79.65;99890.22;8474000;27;20412;-82
2022/10/18 13:52:22;;;;;;;26.30;14.60;;;;;;;18.48;80.66;99874.81;8476735;27;20039;-82
2022/10/18 13:56:36;;;;;;;29.30;14.48;;;;;;;18.39;80.93;99881.53;8476972;27;20051;-82
2022/10/18 14:00:47;;;;;;;24.13;13.40;;;;;;;18.24;81.72;99906.81;8471218;27;20052;-81
2022/10/18 14:05:12;;;;;;;22.60;13.95;;;;;;;18.06;82.12;99934.34;8469880;27;20068;-82
2022/10/18 14:09:22;;;;;;;25.70;15.10;;;;;;;17.85;82.38;99933.59;8464591;27;20051;-81
2022/10/18 14:13:25;;;;;;;26.60;15.07;;;;;;;17.70;83.68;99943.22;8410781;27;20490;-81
2022/10/18 14:17:41;;;;;;;28.50;16.50;;;;;;;17.52;85.02;99932.75;8487529;27;20396;-81
2022/10/18 14:21:48;;;;;;;32.38;18.00;;;;;;;17.16;88.71;99947.81;8480417;27;20047;-82
2022/10/18 14:25:49;;;;;;;31.83;19.33;;;;;;;16.94;90.65;99958.22;8473769;27;20676;-84
2022/10/18 14:30:09;;;;;;;26.23;17.73;;;;;;;16.62;93.58;99959.66;8513485;27;20378;-84
2022/10/18 14:34:14;;;;;;;22.60;12.95;;;;;;;16.33;94.94;99983.03;8509640;27;20155;-80
2022/10/18 14:38:15;;;;;;;13.40;8.40;;;;;;;15.93;94.77;99998.00;8500211;27;20055;-81
2022/10/18 14:42:22;;;;;;;13.00;7.75;;;;;;;15.49;96.82;99980.84;8508363;27;20042;-81
2022/10/18 14:46:26;;;;;;;9.43;6.63;;;;;;;15.37;97.50;99999.75;8456532;27;20573;-83
2022/10/18 14:50:28;;;;;;;9.32;6.10;;;;;;;15.22;97.60;100008.38;8517049;27;20046;-82
2022/10/18 14:54:32;;;;;;;5.97;4.80;;;;;;;15.10;97.92;100000.00;8499853;27;20099;-84
2022/10/18 14:58:35;;;;;;;8.80;4.95;;;;;;;15.03;98.29;100015.97;8469688;27;20070;-81
2022/10/18 15:02:37;;;;;;;6.95;5.28;;;;;;;14.99;98.75;100020.47;8484046;27;20050;-81
2022/10/18 15:06:43;;;;;;;7.75;5.70;;;;;;;14.98;98.83;100024.28;8481521;27;20054;-81
2022/10/18 15:10:45;;;;;;;8.35;5.18;;;;;;;14.97;98.61;100022.69;8513568;27;20463;-82
2022/10/18 15:14:47;;;;;;;6.57;4.93;;;;;;;14.98;98.52;100007.97;8502926;27;20595;-82
2022/10/18 15:19:12;;;;;;;9.05;5.22;;;;;;;14.94;98.49;100002.38;8495392;27;20059;-81
2022/10/18 15:23:33;;;;;;;5.40;4.45;;;;;;;14.77;99.30;100003.09;8507438;27;20034;-81
2022/10/18 15:27:37;;;;;;;6.72;4.80;;;;;;;14.75;99.35;99999.88;8502166;27;20055;-81
2022/10/18 15:31:41;;;;;;;8.02;4.57;;;;;;;14.78;99.21;99998.47;8476268;27;20085;-81
2022/10/18 15:35:42;;;;;;;8.25;4.57;;;;;;;14.71;99.34;100009.78;8492374;27;20502;-81
2022/10/18 15:39:43;;;;;;;8.23;4.88;;;;;;;14.70;99.52;100019.06;8497164;27;20045;-82
2022/10/18 15:43:44;;;;;;;18.40;5.30;;;;;;;14.58;100.00;100021.59;8484197;27;20500;-82
2022/10/18 15:48:09;;;;;;;7.70;4.78;;;;;;;14.57;100.00;100017.25;8513736;27;20046;-82
2022/10/18 15:52:32;;;;;;;11.15;5.53;;;;;;;14.55;100.00;100024.91;8509011;27;20038;-81
2022/10/18 15:56:37;;;;;;;11.07;6.95;;;;;;;14.39;100.00;100029.16;8504841;27;20038;-81
2022/10/18 16:00:37;;;;;;;9.18;5.38;;;;;;;14.36;100.00;100029.75;8496457;27;20609;-82
2022/10/18 16:04:43;;;;;;;7.57;5.50;;;;;;;14.36;100.00;100035.19;8501568;27;20043;-81
2022/10/18 16:08:53;;;;;;;10.10;4.72;;;;;;;14.35;100.00;100030.84;8505730;27;20084;-82
2022/10/18 16:12:54;;;;;;;7.93;4.97;;;;;;;14.40;100.00;100022.59;8449794;27;20043;-81
2022/10/18 16:17:02;;;;;;;8.13;4.82;;;;;;;14.38;100.00;100027.56;8505059;27;20116;-81
2022/10/18 16:21:04;;;;;;;6.07;4.45;;;;;;;14.37;100.00;100031.38;8498644;27;20043;-82
2022/10/18 16:25:05;;;;;;;8.15;4.40;;;;;;;14.33;100.00;100046.66;8470341;27;20444;-81
2022/10/18 16:29:11;;;;;;;7.47;5.10;;;;;;;14.34;100.00;100042.84;8505401;27;20183;-82
2022/10/18 16:33:12;;;;;;;7.32;4.82;;;;;;;14.38;100.00;100055.50;8402272;28;20476;-81
2022/10/18 16:37:13;;;;;;;24.00;12.02;;;;;;;14.33;100.00;100057.53;8394106;28;20098;-82
2022/10/18 16:41:14;;;;;;;13.25;9.10;;;;;;;14.33;100.00;100073.81;8391193;28;20068;-82
2022/10/18 16:45:16;;;;;;;113.65;66.97;;;;;;;14.27;100.00;100075.09;8400224;28;20485;-82
2022/10/18 16:49:19;;;;;;;17.83;9.88;;;;;;;14.27;100.00;100083.25;8413507;28;20567;-82
2022/10/18 16:53:22;;;;;;;57.10;29.48;;;;;;;14.21;100.00;100092.63;8408027;28;20052;-82
2022/10/18 16:57:23;;;;;;;18.42;14.65;;;;;;;14.20;100.00;100096.44;8389128;28;20042;-83
2022/10/18 17:01:25;;;;;;;17.17;9.60;;;;;;;14.24;100.00;100092.00;8399255;28;20430;-84
2022/10/18 17:05:26;;;;;;;24.13;13.50;;;;;;;14.25;100.00;100088.97;8513395;27;20050;-83
2022/10/18 17:09:27;;;;;;;25.15;16.25;;;;;;;14.17;100.00;100091.63;8511869;27;20043;-83
2022/10/18 17:13:27;;;;;;;20.13;12.15;;;;;;;14.20;100.00;100107.31;8515031;27;20387;-83
2022/10/18 17:17:29;;;;;;;21.17;12.27;;;;;;;14.24;100.00;100113.72;8514595;27;20055;-83
2022/10/18 17:21:30;;;;;;;17.15;10.85;;;;;;;14.22;100.00;100115.97;8522239;27;20039;-85
2022/10/18 17:25:31;;;;;;;18.63;12.45;;;;;;;14.19;100.00;100124.72;8516073;27;20039;-85
2022/10/18 17:29:32;;;;;;;25.98;12.32;;;;;;;14.20;100.00;100139.91;8533196;27;20047;-87
2022/10/18 17:33:33;;;;;;;19.55;12.77;;;;;;;14.15;100.00;100137.31;8490548;27;20046;-88
2022/10/18 17:37:35;;;;;;;32.95;20.00;;;;;;;14.16;100.00;100144.34;8513191;27;20047;-84
2022/10/18 17:41:37;;;;;;;31.08;19.50;;;;;;;14.09;100.00;100154.84;8527982;27;20098;-87
2022/10/18 17:45:46;;;;;;;36.75;21.45;;;;;;;14.06;100.00;100156.25;8532824;27;20762;-89
2022/10/18 17:49:47;;;;;;;33.65;20.92;;;;;;;14.06;100.00;100161.69;8510058;27;20488;-90
2022/10/18 17:53:48;;;;;;;25.73;18.63;;;;;;;14.12;100.00;100159.66;8499807;27;20062;-84
2022/10/18 17:57:50;;;;;;;28.30;17.10;;;;;;;14.07;100.00;100151.59;8501924;27;20047;-83
2022/10/18 18:01:54;;;;;;;24.98;16.58;;;;;;;14.08;100.00;100147.78;8512817;27;20396;-83
2022/10/18 18:05:57;;;;;;;30.92;15.15;;;;;;;14.10;100.00;100153.72;8497338;27;20047;-82
2022/10/18 18:09:58;;;;;;;51.03;36.08;;;;;;;14.12;100.00;100156.94;8514607;27;20045;-83
2022/10/18 18:14:08;;;;;;;21.65;12.02;;;;;;;14.05;100.00;100151.13;8515977;27;20066;-83
2022/10/18 18:18:12;;;;;;;20.92;13.48;;;;;;;13.98;100.00;100153.44;8466729;27;20039;-83
2022/10/18 18:22:15;;;;;;;21.80;13.95;;;;;;;14.01;100.00;100152.84;8508140;27;20479;-85
2022/10/18 18:26:19;;;;;;;30.85;18.58;;;;;;;14.03;100.00;100156.06;8504346;27;20039;-83
2022/10/18 18:30:24;;;;;;;17.48;11.20;;;;;;;14.00;100.00;100151.25;8509178;27;20054;-83
2022/10/18 18:34:29;;;;;;;14.77;11.38;;;;;;;14.04;100.00;100152.22;8521815;27;20053;-83
2022/10/18 18:38:37;;;;;;;16.25;10.55;;;;;;;14.06;100.00;100169.03;8446033;27;20408;-83
2022/10/18 18:42:39;;;;;;;15.05;10.13;;;;;;;14.06;100.00;100160.91;8502810;27;20082;-83